Time,TemperatureF,DewpointF,PressureIn,WindDirection,WindDirectionDegrees,WindSpeedMPH,WindSpeedGustMPH,Humidity,HourlyPrecipIn,Conditions,Clouds,dailyrainin,SoftwareType,DateUTC
2013-06-19 00:11:00,66.1,65.0,29.93,SSE,155,0.0,1.0,95,0.00,,,0.00,weatherlink.com 1.10,2013-06-19 04:11:00,
2013-06-19 00:26:00,65.8,64.0,29.93,SSE,155,0.0,0.0,95,0.00,,,0.00,weatherlink.com 1.10,2013-06-19 04:26:00,
2013-06-19 00:41:00,65.7,64.0,29.93,SSE,155,0.0,0.0,95,0.00,,,0.00,weatherlink.com 1.10,2013-06-19 04:41:00,
2013-06-19 00:56:00,65.5,64.0,29.93,SSE,155,0.0,0.0,95,0.00,,,0.00,weatherlink.com 1.10,2013-06-19 04:56:00,
2013-06-19 01:11:00,65.4,64.0,29.93,SSE,155,0.0,0.0,95,0.00,,,0.00,weatherlink.com 1.10,2013-06-19 05:11:00,
2013-06-19 01:26:00,65.3,64.0,29.94,SSE,155,0.0,0.0,95,0.00,,,0.00,weatherlink.com 1.10,2013-06-19 05:26:00,
2013-06-19 01:41:00,65.1,64.0,29.93,SSE,155,0.0,0.0,95,0.00,,,0.00,weatherlink.com 1.10,2013-06-19 05:41:00,
2013-06-19 01:56:00,64.9,64.0,29.93,SSE,155,0.0,0.0,95,0.00,,,0.00,weatherlink.com 1.10,2013-06-19 05:56:00,
2013-06-19 02:11:00,64.6,63.0,29.93,SSE,155,0.0,0.0,95,0.00,,,0.00,weatherlink.com 1.10,2013-06-19 06:11:00,
2013-06-19 02:26:00,64.1,63.0,29.93,SSE,155,0.0,0.0,95,0.00,,,0.00,weatherlink.com 1.10,2013-06-19 06:26:00,
2013-06-19 02:41:00,63.8,62.0,29.93,SSE,155,0.0,0.0,95,0.00,,,0.00,weatherlink.com 1.10,2013-06-19 06:41:00,
2013-06-19 02:56:00,63.5,62.0,29.94,SSE,155,0.0,0.0,95,0.00,,,0.00,weatherlink.com 1.10,2013-06-19 06:56:00,
2013-06-19 03:11:00,63.2,62.0,29.94,SSE,155,0.0,0.0,95,0.00,,,0.00,weatherlink.com 1.10,2013-06-19 07:11:00,
2013-06-19 03:26:00,63.0,62.0,29.94,SSE,155,0.0,0.0,95,0.00,,,0.00,weatherlink.com 1.10,2013-06-19 07:26:00,
2013-06-19 03:42:00,62.6,61.0,29.94,SSE,155,0.0,0.0,95,0.00,,,0.00,weatherlink.com 1.10,2013-06-19 07:42:00,
2013-06-19 03:57:00,62.2,61.0,29.94,SSE,155,0.0,0.0,95,0.00,,,0.00,weatherlink.com 1.10,2013-06-19 07:57:00,
2013-06-19 04:12:00,62.1,61.0,29.93,SSE,155,0.0,0.0,96,0.00,,,0.00,weatherlink.com 1.10,2013-06-19 08:12:00,
2013-06-19 04:27:00,61.8,60.0,29.93,SSE,155,0.0,0.0,95,0.00,,,0.00,weatherlink.com 1.10,2013-06-19 08:27:00,
2013-06-19 04:42:00,61.4,60.0,29.94,SSE,155,0.0,0.0,95,0.00,,,0.00,weatherlink.com 1.10,2013-06-19 08:42:00,
2013-06-19 04:57:00,61.1,60.0,29.95,SSE,155,0.0,0.0,95,0.00,,,0.00,weatherlink.com 1.10,2013-06-19 08:57:00,
2013-06-19 05:12:00,61.2,60.0,29.95,SSE,155,0.0,0.0,96,0.00,,,0.00,weatherlink.com 1.10,2013-06-19 09:12:00,
2013-06-19 05:27:00,61.3,60.0,29.95,SSE,155,0.0,0.0,96,0.00,,,0.00,weatherlink.com 1.10,2013-06-19 09:27:00,
2013-06-19 05:42:00,61.2,60.0,29.95,SSE,155,0.0,0.0,96,0.00,,,0.00,weatherlink.com 1.10,2013-06-19 09:42:00,
2013-06-19 05:57:00,61.1,60.0,29.96,SSE,155,0.0,0.0,96,0.00,,,0.00,weatherlink.com 1.10,2013-06-19 09:57:00,
2013-06-19 06:12:00,61.0,60.0,29.96,SSE,155,0.0,0.0,96,0.00,,,0.00,weatherlink.com 1.10,2013-06-19 10:12:00,
2013-06-19 06:27:00,61.3,60.0,29.97,SSE,155,0.0,0.0,96,0.00,,,0.00,weatherlink.com 1.10,2013-06-19 10:27:00,
2013-06-19 06:42:00,61.6,61.0,29.98,SSE,155,0.0,0.0,96,0.00,,,0.00,weatherlink.com 1.10,2013-06-19 10:42:00,
2013-06-19 06:57:00,61.7,61.0,29.98,SSE,155,0.0,0.0,96,0.00,,,0.00,weatherlink.com 1.10,2013-06-19 10:57:00,
2013-06-19 07:12:00,62.0,61.0,29.99,SSE,155,0.0,0.0,96,0.00,,,0.00,weatherlink.com 1.10,2013-06-19 11:12:00,
2013-06-19 07:27:00,62.2,61.0,30.00,SSE,155,0.0,0.0,96,0.00,,,0.00,weatherlink.com 1.10,2013-06-19 11:27:00,
2013-06-19 07:42:00,62.7,62.0,30.00,SSE,155,0.0,0.0,96,0.00,,,0.00,weatherlink.com 1.10,2013-06-19 11:42:00,
2013-06-19 07:57:00,63.1,62.0,30.01,SSE,155,0.0,0.0,96,0.00,,,0.00,weatherlink.com 1.10,2013-06-19 11:57:00,
2013-06-19 08:12:00,63.8,63.0,30.01,SSE,155,0.0,0.0,96,0.00,,,0.00,weatherlink.com 1.10,2013-06-19 12:12:00,
2013-06-19 08:27:00,64.3,63.0,30.02,SSE,155,0.0,0.0,96,0.00,,,0.00,weatherlink.com 1.10,2013-06-19 12:27:00,
2013-06-19 08:42:00,64.3,63.0,30.02,SSE,155,0.0,0.0,96,0.00,,,0.00,weatherlink.com 1.10,2013-06-19 12:42:00,
2013-06-19 08:57:00,64.4,63.0,30.03,SSE,152,0.0,0.0,96,0.00,,,0.00,weatherlink.com 1.10,2013-06-19 12:57:00,
2013-06-19 09:12:00,64.8,64.0,30.03,SSE,147,0.0,0.0,96,0.00,,,0.00,weatherlink.com 1.10,2013-06-19 13:12:00,
2013-06-19 09:27:00,65.6,64.0,30.03,SSE,147,0.0,0.0,95,0.00,,,0.00,weatherlink.com 1.10,2013-06-19 13:27:00,
2013-06-19 09:42:00,66.3,65.0,30.03,SE,146,0.0,0.0,94,0.00,,,0.00,weatherlink.com 1.10,2013-06-19 13:42:00,
2013-06-19 09:57:00,67.2,65.0,30.03,SW,225,0.0,1.0,93,0.00,,,0.00,weatherlink.com 1.10,2013-06-19 13:57:00,
2013-06-19 10:12:00,68.2,66.0,30.03,SW,231,0.0,2.0,91,0.00,,,0.00,weatherlink.com 1.10,2013-06-19 14:12:00,
2013-06-19 10:27:00,69.3,66.0,30.03,SW,229,1.0,1.0,90,0.00,,,0.00,weatherlink.com 1.10,2013-06-19 14:27:00,
2013-06-19 10:42:00,70.4,67.0,30.03,SW,229,0.0,0.0,89,0.00,,,0.00,weatherlink.com 1.10,2013-06-19 14:42:00,
2013-06-19 10:57:00,71.3,68.0,30.03,SW,229,0.0,0.0,89,0.00,,,0.00,weatherlink.com 1.10,2013-06-19 14:57:00,
2013-06-19 11:12:00,72.1,67.0,30.04,WSW,246,0.0,0.0,85,0.00,,,0.00,weatherlink.com 1.10,2013-06-19 15:12:00,
2013-06-19 11:28:00,73.4,68.0,30.05,WSW,246,0.0,0.0,83,0.00,,,0.00,weatherlink.com 1.10,2013-06-19 15:28:00,
2013-06-19 11:43:00,74.6,69.0,30.04,WSW,248,0.0,0.0,82,0.00,,,0.00,weatherlink.com 1.10,2013-06-19 15:43:00,
2013-06-19 11:58:00,75.1,69.0,30.04,WSW,250,0.0,0.0,80,0.00,,,0.00,weatherlink.com 1.10,2013-06-19 15:58:00,
2013-06-19 12:13:00,75.3,68.0,30.05,WSW,249,0.0,0.0,79,0.00,,,0.00,weatherlink.com 1.10,2013-06-19 16:13:00,
2013-06-19 12:28:00,75.6,68.0,30.05,WSW,249,0.0,0.0,77,0.00,,,0.00,weatherlink.com 1.10,2013-06-19 16:28:00,
2013-06-19 12:44:00,75.0,68.0,30.05,WSW,243,0.0,0.0,80,0.00,,,0.00,weatherlink.com 1.10,2013-06-19 16:44:00,
2013-06-19 12:58:00,75.9,69.0,30.05,WSW,248,0.0,0.0,80,0.00,,,0.00,weatherlink.com 1.10,2013-06-19 16:58:00,
2013-06-19 13:13:00,76.4,70.0,30.05,SSE,158,0.0,0.0,80,0.00,,,0.00,weatherlink.com 1.10,2013-06-19 17:13:00,
2013-06-19 13:28:00,76.6,69.0,30.04,SSE,166,0.0,0.0,76,0.00,,,0.00,weatherlink.com 1.10,2013-06-19 17:28:00,
2013-06-19 13:43:00,77.9,68.0,30.04,SSE,167,0.0,0.0,72,0.00,,,0.00,weatherlink.com 1.10,2013-06-19 17:43:00,
2013-06-19 13:58:00,78.6,69.0,30.04,SW,232,0.0,0.0,72,0.00,,,0.00,weatherlink.com 1.10,2013-06-19 17:58:00,
2013-06-19 14:13:00,78.6,70.0,30.04,SW,231,0.0,0.0,74,0.00,,,0.00,weatherlink.com 1.10,2013-06-19 18:13:00,
2013-06-19 14:28:00,79.2,69.0,30.03,SW,236,0.0,0.0,72,0.00,,,0.00,weatherlink.com 1.10,2013-06-19 18:28:00,
2013-06-19 14:43:00,79.7,69.0,30.03,SW,219,0.0,1.0,69,0.00,,,0.00,weatherlink.com 1.10,2013-06-19 18:43:00,
2013-06-19 14:58:00,81.4,70.0,30.02,SE,145,0.0,1.0,68,0.00,,,0.00,weatherlink.com 1.10,2013-06-19 18:58:00,
2013-06-19 15:13:00,82.7,69.0,30.02,SSE,154,0.0,1.0,64,0.00,,,0.00,weatherlink.com 1.10,2013-06-19 19:13:00,
2013-06-19 15:28:00,83.9,69.0,30.02,SE,134,0.0,1.0,61,0.00,,,0.00,weatherlink.com 1.10,2013-06-19 19:28:00,
2013-06-19 15:43:00,84.5,70.0,30.01,South,172,0.0,0.0,62,0.00,,,0.00,weatherlink.com 1.10,2013-06-19 19:43:00,
2013-06-19 15:58:00,85.6,69.0,30.01,SSE,155,0.0,2.0,58,0.00,,,0.00,weatherlink.com 1.10,2013-06-19 19:58:00,
2013-06-19 16:13:00,86.6,72.0,30.01,SW,222,0.0,2.0,61,0.00,,,0.00,weatherlink.com 1.10,2013-06-19 20:13:00,
2013-06-19 16:28:00,85.3,70.0,30.01,East,100,0.0,1.0,60,0.00,,,0.00,weatherlink.com 1.10,2013-06-19 20:28:00,
2013-06-19 16:43:00,86.0,70.0,30.01,SSW,205,0.0,0.0,59,0.00,,,0.00,weatherlink.com 1.10,2013-06-19 20:43:00,
2013-06-19 16:58:00,83.7,69.0,30.01,SSW,205,0.0,0.0,62,0.00,,,0.00,weatherlink.com 1.10,2013-06-19 20:58:00,
2013-06-19 17:13:00,83.0,68.0,30.01,SSW,207,0.0,0.0,61,0.00,,,0.00,weatherlink.com 1.10,2013-06-19 21:13:00,
2013-06-19 17:28:00,83.2,71.0,30.01,SSW,205,0.0,0.0,66,0.00,,,0.00,weatherlink.com 1.10,2013-06-19 21:28:00,
2013-06-19 17:43:00,82.2,70.0,30.01,SSW,205,0.0,0.0,66,0.00,,,0.00,weatherlink.com 1.10,2013-06-19 21:43:00,
2013-06-19 17:58:00,77.9,69.0,30.00,SSW,207,0.0,0.0,74,0.00,,,0.00,weatherlink.com 1.10,2013-06-19 21:58:00,
2013-06-19 18:13:00,77.0,70.0,30.00,SSW,209,0.0,0.0,80,0.00,,,0.00,weatherlink.com 1.10,2013-06-19 22:13:00,
2013-06-19 18:28:00,76.8,70.0,30.00,SSW,207,0.0,0.0,79,0.00,,,0.00,weatherlink.com 1.10,2013-06-19 22:28:00,
2013-06-19 18:43:00,75.9,69.0,30.00,SSW,209,0.0,0.0,80,0.00,,,0.00,weatherlink.com 1.10,2013-06-19 22:43:00,
2013-06-19 18:58:00,75.4,68.0,30.01,SSW,209,0.0,0.0,78,0.00,,,0.00,weatherlink.com 1.10,2013-06-19 22:58:00,
2013-06-19 19:13:00,74.8,69.0,30.01,SSW,208,0.0,0.0,81,0.00,,,0.00,weatherlink.com 1.10,2013-06-19 23:13:00,
2013-06-19 19:28:00,74.4,69.0,30.02,SSW,208,0.0,0.0,82,0.00,,,0.00,weatherlink.com 1.10,2013-06-19 23:28:00,
2013-06-19 19:43:00,74.0,69.0,30.02,SSW,208,0.0,0.0,84,0.00,,,0.00,weatherlink.com 1.10,2013-06-19 23:43:00,
2013-06-19 19:58:00,73.0,69.0,30.03,SSW,208,0.0,0.0,87,0.00,,,0.00,weatherlink.com 1.10,2013-06-19 23:58:00,
2013-06-19 20:13:00,72.2,69.0,30.03,SSW,209,0.0,0.0,89,0.00,,,0.00,weatherlink.com 1.10,2013-06-20 00:13:00,
2013-06-19 20:28:00,71.4,68.0,30.03,SSW,208,0.0,0.0,89,0.00,,,0.00,weatherlink.com 1.10,2013-06-20 00:28:00,
2013-06-19 20:43:00,70.7,68.0,30.04,SSW,208,0.0,0.0,90,0.00,,,0.00,weatherlink.com 1.10,2013-06-20 00:43:00,
2013-06-19 20:58:00,69.9,67.0,30.04,SSW,208,0.0,0.0,90,0.00,,,0.00,weatherlink.com 1.10,2013-06-20 00:58:00,
2013-06-19 21:44:00,68.1,66.0,30.06,SSW,208,0.0,0.0,92,0.00,,,0.00,weatherlink.com 1.10,2013-06-20 01:44:00,
2013-06-19 21:59:00,67.8,66.0,30.07,SSW,209,0.0,0.0,93,0.00,,,0.00,weatherlink.com 1.10,2013-06-20 01:59:00,
2013-06-19 22:14:00,67.8,66.0,30.08,SSW,209,0.0,0.0,93,0.00,,,0.00,weatherlink.com 1.10,2013-06-20 02:14:00,
2013-06-19 22:29:00,67.8,66.0,30.09,SSW,208,0.0,0.0,93,0.00,,,0.00,weatherlink.com 1.10,2013-06-20 02:29:00,
2013-06-19 22:44:00,67.9,66.0,30.09,SSW,208,0.0,0.0,92,0.00,,,0.00,weatherlink.com 1.10,2013-06-20 02:44:00,
2013-06-19 22:59:00,68.0,66.0,30.09,SSW,208,0.0,0.0,92,0.00,,,0.00,weatherlink.com 1.10,2013-06-20 02:59:00,
2013-06-19 23:14:00,67.9,66.0,30.10,SSW,208,0.0,0.0,92,0.00,,,0.00,weatherlink.com 1.10,2013-06-20 03:14:00,
2013-06-19 23:29:00,68.0,66.0,30.09,SSW,209,0.0,0.0,92,0.00,,,0.00,weatherlink.com 1.10,2013-06-20 03:29:00,
2013-06-19 23:44:00,67.6,66.0,30.09,SSW,208,0.0,0.0,93,0.00,,,0.00,weatherlink.com 1.10,2013-06-20 03:44:00,
2013-06-19 23:59:00,67.3,65.0,30.09,SSW,208,0.0,0.0,93,0.00,,,0.00,weatherlink.com 1.10,2013-06-20 03:59:00,